sensor_id;sensor_type;location;lat;lon;timestamp;P1;durP1;ratioP1;P2;durP2;ratioP2
72924;SDS011;61070;50.794;7.054;2023-01-23T00:01:35;34.88;;;17.05;;
72924;SDS011;61070;50.794;7.054;2023-01-23T00:04:02;35.00;;;16.63;;
72924;SDS011;61070;50.794;7.054;2023-01-23T00:06:29;35.15;;;17.80;;
72924;SDS011;61070;50.794;7.054;2023-01-23T00:08:54;37.05;;;17.58;;
72924;SDS011;61070;50.794;7.054;2023-01-23T00:11:21;35.65;;;16.90;;
72924;SDS011;61070;50.794;7.054;2023-01-23T00:13:49;36.20;;;17.17;;
72924;SDS011;61070;50.794;7.054;2023-01-23T00:16:17;37.88;;;17.60;;
72924;SDS011;61070;50.794;7.054;2023-01-23T00:18:43;36.60;;;19.10;;
72924;SDS011;61070;50.794;7.054;2023-01-23T00:21:10;46.58;;;19.58;;
72924;SDS011;61070;50.794;7.054;2023-01-23T00:23:40;42.13;;;19.98;;
72924;SDS011;61070;50.794;7.054;2023-01-23T00:26:11;38.95;;;20.40;;
72924;SDS011;61070;50.794;7.054;2023-01-23T00:28:39;39.45;;;18.63;;
72924;SDS011;61070;50.794;7.054;2023-01-23T00:31:06;39.17;;;18.13;;
72924;SDS011;61070;50.794;7.054;2023-01-23T00:33:39;43.78;;;20.13;;
72924;SDS011;61070;50.794;7.054;2023-01-23T00:36:05;41.45;;;18.55;;
72924;SDS011;61070;50.794;7.054;2023-01-23T00:38:31;38.33;;;18.25;;
72924;SDS011;61070;50.794;7.054;2023-01-23T00:40:57;34.63;;;17.40;;
72924;SDS011;61070;50.794;7.054;2023-01-23T00:43:23;37.08;;;17.75;;
72924;SDS011;61070;50.794;7.054;2023-01-23T00:45:48;36.80;;;18.65;;
72924;SDS011;61070;50.794;7.054;2023-01-23T00:48:15;37.00;;;17.98;;
72924;SDS011;61070;50.794;7.054;2023-01-23T00:50:40;38.15;;;17.65;;
72924;SDS011;61070;50.794;7.054;2023-01-23T00:53:05;33.78;;;16.55;;
72924;SDS011;61070;50.794;7.054;2023-01-23T00:55:31;36.83;;;18.20;;
72924;SDS011;61070;50.794;7.054;2023-01-23T00:57:56;38.78;;;18.85;;
72924;SDS011;61070;50.794;7.054;2023-01-23T01:00:22;40.08;;;18.08;;
72924;SDS011;61070;50.794;7.054;2023-01-23T01:02:47;38.50;;;19.38;;
72924;SDS011;61070;50.794;7.054;2023-01-23T01:05:13;36.47;;;18.52;;
72924;SDS011;61070;50.794;7.054;2023-01-23T01:07:39;44.28;;;18.73;;
72924;SDS011;61070;50.794;7.054;2023-01-23T01:10:05;39.03;;;18.35;;
72924;SDS011;61070;50.794;7.054;2023-01-23T01:12:30;39.15;;;18.92;;
72924;SDS011;61070;50.794;7.054;2023-01-23T01:14:55;38.22;;;17.85;;
72924;SDS011;61070;50.794;7.054;2023-01-23T01:17:21;41.40;;;19.27;;
72924;SDS011;61070;50.794;7.054;2023-01-23T01:19:46;39.08;;;19.23;;
72924;SDS011;61070;50.794;7.054;2023-01-23T01:22:12;38.75;;;18.63;;
72924;SDS011;61070;50.794;7.054;2023-01-23T01:24:39;33.20;;;17.42;;
72924;SDS011;61070;50.794;7.054;2023-01-23T01:27:06;35.10;;;17.45;;
72924;SDS011;61070;50.794;7.054;2023-01-23T01:29:31;38.70;;;18.27;;
72924;SDS011;61070;50.794;7.054;2023-01-23T01:31:57;42.88;;;19.02;;
72924;SDS011;61070;50.794;7.054;2023-01-23T01:34:22;39.13;;;18.13;;
72924;SDS011;61070;50.794;7.054;2023-01-23T01:36:47;36.83;;;17.67;;
72924;SDS011;61070;50.794;7.054;2023-01-23T01:39:13;41.38;;;17.75;;
72924;SDS011;61070;50.794;7.054;2023-01-23T01:41:38;41.78;;;19.15;;
72924;SDS011;61070;50.794;7.054;2023-01-23T01:44:04;39.17;;;17.77;;
72924;SDS011;61070;50.794;7.054;2023-01-23T01:46:29;39.15;;;19.35;;
72924;SDS011;61070;50.794;7.054;2023-01-23T01:48:58;43.40;;;19.02;;
72924;SDS011;61070;50.794;7.054;2023-01-23T01:53:53;40.00;;;18.63;;
72924;SDS011;61070;50.794;7.054;2023-01-23T01:56:23;45.35;;;19.10;;
72924;SDS011;61070;50.794;7.054;2023-01-23T01:58:50;46.03;;;19.08;;
72924;SDS011;61070;50.794;7.054;2023-01-23T02:01:17;42.90;;;20.05;;
72924;SDS011;61070;50.794;7.054;2023-01-23T02:03:43;38.08;;;17.83;;
72924;SDS011;61070;50.794;7.054;2023-01-23T02:06:09;43.90;;;20.13;;
72924;SDS011;61070;50.794;7.054;2023-01-23T02:08:41;46.63;;;19.35;;
72924;SDS011;61070;50.794;7.054;2023-01-23T02:11:12;42.78;;;18.10;;
72924;SDS011;61070;50.794;7.054;2023-01-23T02:13:39;38.53;;;17.70;;
72924;SDS011;61070;50.794;7.054;2023-01-23T02:16:20;42.33;;;18.67;;
72924;SDS011;61070;50.794;7.054;2023-01-23T02:18:49;44.70;;;20.40;;
72924;SDS011;61070;50.794;7.054;2023-01-23T02:21:21;42.95;;;17.45;;
72924;SDS011;61070;50.794;7.054;2023-01-23T02:26:39;38.88;;;19.08;;
72924;SDS011;61070;50.794;7.054;2023-01-23T02:29:07;47.67;;;19.80;;
72924;SDS011;61070;50.794;7.054;2023-01-23T02:31:33;40.47;;;19.05;;
72924;SDS011;61070;50.794;7.054;2023-01-23T02:33:59;35.55;;;18.13;;
72924;SDS011;61070;50.794;7.054;2023-01-23T02:36:26;43.25;;;18.15;;
72924;SDS011;61070;50.794;7.054;2023-01-23T02:38:57;43.17;;;19.05;;
72924;SDS011;61070;50.794;7.054;2023-01-23T02:41:28;40.83;;;19.27;;
72924;SDS011;61070;50.794;7.054;2023-01-23T02:44:21;42.40;;;18.63;;
72924;SDS011;61070;50.794;7.054;2023-01-23T02:46:54;43.05;;;18.05;;
72924;SDS011;61070;50.794;7.054;2023-01-23T02:49:21;41.00;;;18.27;;
72924;SDS011;61070;50.794;7.054;2023-01-23T02:51:47;35.03;;;17.40;;
72924;SDS011;61070;50.794;7.054;2023-01-23T02:54:13;41.42;;;18.90;;
72924;SDS011;61070;50.794;7.054;2023-01-23T02:56:39;46.08;;;18.20;;
72924;SDS011;61070;50.794;7.054;2023-01-23T02:59:06;38.15;;;16.92;;
72924;SDS011;61070;50.794;7.054;2023-01-23T03:01:51;39.83;;;17.90;;
72924;SDS011;61070;50.794;7.054;2023-01-23T03:04:16;39.83;;;17.35;;
72924;SDS011;61070;50.794;7.054;2023-01-23T03:06:41;36.17;;;18.20;;
72924;SDS011;61070;50.794;7.054;2023-01-23T03:09:08;46.08;;;19.45;;
72924;SDS011;61070;50.794;7.054;2023-01-23T03:11:36;38.15;;;17.45;;
72924;SDS011;61070;50.794;7.054;2023-01-23T03:14:03;41.58;;;17.80;;
72924;SDS011;61070;50.794;7.054;2023-01-23T03:16:28;37.42;;;17.00;;
72924;SDS011;61070;50.794;7.054;2023-01-23T03:18:54;41.17;;;18.30;;
72924;SDS011;61070;50.794;7.054;2023-01-23T03:21:21;38.40;;;17.65;;
72924;SDS011;61070;50.794;7.054;2023-01-23T03:23:47;43.17;;;17.98;;
72924;SDS011;61070;50.794;7.054;2023-01-23T03:26:12;36.63;;;17.38;;
72924;SDS011;61070;50.794;7.054;2023-01-23T03:28:38;41.13;;;18.73;;
72924;SDS011;61070;50.794;7.054;2023-01-23T03:31:22;42.83;;;19.45;;
72924;SDS011;61070;50.794;7.054;2023-01-23T03:33:47;35.95;;;17.98;;
72924;SDS011;61070;50.794;7.054;2023-01-23T03:36:13;40.63;;;19.60;;
72924;SDS011;61070;50.794;7.054;2023-01-23T03:38:38;48.97;;;20.20;;
72924;SDS011;61070;50.794;7.054;2023-01-23T03:41:23;41.95;;;17.98;;
72924;SDS011;61070;50.794;7.054;2023-01-23T03:43:49;43.03;;;18.48;;
72924;SDS011;61070;50.794;7.054;2023-01-23T03:46:14;40.38;;;19.40;;
72924;SDS011;61070;50.794;7.054;2023-01-23T03:48:39;40.30;;;17.67;;
72924;SDS011;61070;50.794;7.054;2023-01-23T03:51:04;41.40;;;18.48;;
72924;SDS011;61070;50.794;7.054;2023-01-23T03:53:31;43.28;;;18.95;;
72924;SDS011;61070;50.794;7.054;2023-01-23T03:55:56;37.83;;;17.95;;
72924;SDS011;61070;50.794;7.054;2023-01-23T03:58:21;43.45;;;18.98;;
72924;SDS011;61070;50.794;7.054;2023-01-23T04:00:47;41.53;;;19.55;;
72924;SDS011;61070;50.794;7.054;2023-01-23T04:03:12;37.55;;;18.23;;
72924;SDS011;61070;50.794;7.054;2023-01-23T04:05:37;44.13;;;19.45;;
72924;SDS011;61070;50.794;7.054;2023-01-23T04:08:03;43.60;;;19.40;;
72924;SDS011;61070;50.794;7.054;2023-01-23T04:10:28;40.97;;;18.60;;
72924;SDS011;61070;50.794;7.054;2023-01-23T04:12:53;42.95;;;19.20;;
72924;SDS011;61070;50.794;7.054;2023-01-23T04:15:19;44.55;;;19.40;;
72924;SDS011;61070;50.794;7.054;2023-01-23T04:17:44;37.25;;;17.10;;
72924;SDS011;61070;50.794;7.054;2023-01-23T04:20:10;42.25;;;17.52;;
72924;SDS011;61070;50.794;7.054;2023-01-23T04:22:36;41.25;;;17.27;;
72924;SDS011;61070;50.794;7.054;2023-01-23T04:25:02;43.00;;;18.58;;
72924;SDS011;61070;50.794;7.054;2023-01-23T04:27:27;35.92;;;17.63;;
72924;SDS011;61070;50.794;7.054;2023-01-23T04:29:52;35.63;;;17.13;;
72924;SDS011;61070;50.794;7.054;2023-01-23T04:32:17;40.63;;;17.20;;
72924;SDS011;61070;50.794;7.054;2023-01-23T04:34:43;38.15;;;17.23;;
72924;SDS011;61070;50.794;7.054;2023-01-23T04:37:08;40.65;;;19.98;;
72924;SDS011;61070;50.794;7.054;2023-01-23T04:39:33;38.85;;;17.00;;
72924;SDS011;61070;50.794;7.054;2023-01-23T04:41:59;45.00;;;17.63;;
72924;SDS011;61070;50.794;7.054;2023-01-23T04:44:24;41.63;;;18.38;;
72924;SDS011;61070;50.794;7.054;2023-01-23T04:46:51;40.40;;;17.17;;
72924;SDS011;61070;50.794;7.054;2023-01-23T04:49:18;41.70;;;17.55;;
72924;SDS011;61070;50.794;7.054;2023-01-23T04:51:45;34.83;;;16.42;;
72924;SDS011;61070;50.794;7.054;2023-01-23T04:54:12;37.42;;;17.42;;
72924;SDS011;61070;50.794;7.054;2023-01-23T04:56:37;39.88;;;16.90;;
72924;SDS011;61070;50.794;7.054;2023-01-23T04:59:02;40.72;;;17.65;;
72924;SDS011;61070;50.794;7.054;2023-01-23T05:01:28;35.17;;;16.27;;
72924;SDS011;61070;50.794;7.054;2023-01-23T05:03:53;37.33;;;17.05;;
72924;SDS011;61070;50.794;7.054;2023-01-23T05:06:18;36.08;;;16.73;;
72924;SDS011;61070;50.794;7.054;2023-01-23T05:08:44;35.97;;;17.05;;
72924;SDS011;61070;50.794;7.054;2023-01-23T05:11:09;38.83;;;17.73;;
72924;SDS011;61070;50.794;7.054;2023-01-23T05:13:34;37.92;;;17.00;;
72924;SDS011;61070;50.794;7.054;2023-01-23T05:16:00;40.70;;;17.70;;
72924;SDS011;61070;50.794;7.054;2023-01-23T05:18:25;44.97;;;18.02;;
72924;SDS011;61070;50.794;7.054;2023-01-23T05:20:50;41.33;;;18.83;;
72924;SDS011;61070;50.794;7.054;2023-01-23T05:23:15;41.80;;;17.95;;
72924;SDS011;61070;50.794;7.054;2023-01-23T05:25:41;38.42;;;17.42;;
72924;SDS011;61070;50.794;7.054;2023-01-23T05:28:06;41.55;;;18.30;;
72924;SDS011;61070;50.794;7.054;2023-01-23T05:30:32;40.15;;;17.33;;
72924;SDS011;61070;50.794;7.054;2023-01-23T05:32:57;41.25;;;17.00;;
72924;SDS011;61070;50.794;7.054;2023-01-23T05:35:22;38.80;;;17.45;;
72924;SDS011;61070;50.794;7.054;2023-01-23T05:37:48;39.83;;;18.10;;
72924;SDS011;61070;50.794;7.054;2023-01-23T05:40:15;37.92;;;17.95;;
72924;SDS011;61070;50.794;7.054;2023-01-23T05:42:41;39.17;;;17.92;;
72924;SDS011;61070;50.794;7.054;2023-01-23T05:45:06;42.40;;;18.02;;
72924;SDS011;61070;50.794;7.054;2023-01-23T05:47:32;34.13;;;16.20;;
72924;SDS011;61070;50.794;7.054;2023-01-23T05:49:57;37.35;;;17.58;;
72924;SDS011;61070;50.794;7.054;2023-01-23T05:52:23;36.78;;;17.80;;
72924;SDS011;61070;50.794;7.054;2023-01-23T05:54:48;38.95;;;17.95;;
72924;SDS011;61070;50.794;7.054;2023-01-23T05:57:14;37.92;;;17.63;;
72924;SDS011;61070;50.794;7.054;2023-01-23T05:59:40;42.25;;;18.25;;
72924;SDS011;61070;50.794;7.054;2023-01-23T06:02:05;37.20;;;18.42;;
72924;SDS011;61070;50.794;7.054;2023-01-23T06:04:30;37.17;;;17.13;;
72924;SDS011;61070;50.794;7.054;2023-01-23T06:06:56;40.00;;;17.50;;
72924;SDS011;61070;50.794;7.054;2023-01-23T06:09:21;39.33;;;17.92;;
72924;SDS011;61070;50.794;7.054;2023-01-23T06:11:47;38.60;;;17.15;;
72924;SDS011;61070;50.794;7.054;2023-01-23T06:14:12;41.22;;;17.50;;
72924;SDS011;61070;50.794;7.054;2023-01-23T06:16:37;38.30;;;17.73;;
72924;SDS011;61070;50.794;7.054;2023-01-23T06:19:03;35.70;;;17.55;;
72924;SDS011;61070;50.794;7.054;2023-01-23T06:21:28;35.20;;;16.55;;
72924;SDS011;61070;50.794;7.054;2023-01-23T06:23:53;39.58;;;17.65;;
72924;SDS011;61070;50.794;7.054;2023-01-23T06:26:19;35.95;;;17.77;;
72924;SDS011;61070;50.794;7.054;2023-01-23T06:28:44;39.50;;;17.80;;
72924;SDS011;61070;50.794;7.054;2023-01-23T06:31:09;37.95;;;17.63;;
72924;SDS011;61070;50.794;7.054;2023-01-23T06:33:35;41.28;;;18.00;;
72924;SDS011;61070;50.794;7.054;2023-01-23T06:36:02;40.95;;;17.92;;
72924;SDS011;61070;50.794;7.054;2023-01-23T06:38:29;38.83;;;17.00;;
72924;SDS011;61070;50.794;7.054;2023-01-23T06:40:56;39.28;;;17.77;;
72924;SDS011;61070;50.794;7.054;2023-01-23T06:43:21;37.28;;;17.77;;
72924;SDS011;61070;50.794;7.054;2023-01-23T06:45:48;37.30;;;18.50;;
72924;SDS011;61070;50.794;7.054;2023-01-23T06:48:14;38.65;;;19.02;;
72924;SDS011;61070;50.794;7.054;2023-01-23T06:50:39;38.17;;;17.75;;
72924;SDS011;61070;50.794;7.054;2023-01-23T06:53:06;40.45;;;18.42;;
72924;SDS011;61070;50.794;7.054;2023-01-23T06:55:32;41.47;;;17.90;;
72924;SDS011;61070;50.794;7.054;2023-01-23T06:57:58;40.53;;;18.17;;
72924;SDS011;61070;50.794;7.054;2023-01-23T07:00:23;39.50;;;17.90;;
72924;SDS011;61070;50.794;7.054;2023-01-23T07:02:49;41.42;;;18.52;;
72924;SDS011;61070;50.794;7.054;2023-01-23T07:05:16;37.78;;;18.08;;
72924;SDS011;61070;50.794;7.054;2023-01-23T07:07:41;36.85;;;16.88;;
72924;SDS011;61070;50.794;7.054;2023-01-23T07:10:07;40.58;;;17.48;;
72924;SDS011;61070;50.794;7.054;2023-01-23T07:12:33;37.78;;;17.88;;
72924;SDS011;61070;50.794;7.054;2023-01-23T07:14:58;37.53;;;17.23;;
72924;SDS011;61070;50.794;7.054;2023-01-23T07:17:23;39.78;;;17.70;;
72924;SDS011;61070;50.794;7.054;2023-01-23T07:19:49;35.80;;;17.08;;
72924;SDS011;61070;50.794;7.054;2023-01-23T07:22:17;46.30;;;17.48;;
72924;SDS011;61070;50.794;7.054;2023-01-23T07:24:44;44.53;;;19.27;;
72924;SDS011;61070;50.794;7.054;2023-01-23T07:27:09;41.03;;;16.42;;
72924;SDS011;61070;50.794;7.054;2023-01-23T07:29:35;44.25;;;18.30;;
72924;SDS011;61070;50.794;7.054;2023-01-23T07:32:00;36.42;;;17.00;;
72924;SDS011;61070;50.794;7.054;2023-01-23T07:34:26;39.67;;;17.55;;
72924;SDS011;61070;50.794;7.054;2023-01-23T07:36:51;37.78;;;17.52;;
72924;SDS011;61070;50.794;7.054;2023-01-23T07:39:16;42.45;;;18.75;;
72924;SDS011;61070;50.794;7.054;2023-01-23T07:41:42;40.95;;;18.75;;
72924;SDS011;61070;50.794;7.054;2023-01-23T07:44:07;41.30;;;17.73;;
72924;SDS011;61070;50.794;7.054;2023-01-23T07:46:38;37.72;;;17.40;;
72924;SDS011;61070;50.794;7.054;2023-01-23T07:49:03;37.70;;;15.95;;
72924;SDS011;61070;50.794;7.054;2023-01-23T07:51:29;38.45;;;16.45;;
72924;SDS011;61070;50.794;7.054;2023-01-23T07:53:54;31.88;;;15.65;;
72924;SDS011;61070;50.794;7.054;2023-01-23T07:56:19;33.80;;;14.77;;
72924;SDS011;61070;50.794;7.054;2023-01-23T07:58:47;34.03;;;14.43;;
72924;SDS011;61070;50.794;7.054;2023-01-23T08:01:13;36.47;;;17.40;;
72924;SDS011;61070;50.794;7.054;2023-01-23T08:03:38;35.72;;;15.90;;
72924;SDS011;61070;50.794;7.054;2023-01-23T08:06:04;34.17;;;15.52;;
72924;SDS011;61070;50.794;7.054;2023-01-23T08:08:29;39.72;;;19.20;;
72924;SDS011;61070;50.794;7.054;2023-01-23T08:10:55;35.25;;;15.85;;
72924;SDS011;61070;50.794;7.054;2023-01-23T08:13:20;35.90;;;17.67;;
72924;SDS011;61070;50.794;7.054;2023-01-23T08:15:45;36.05;;;17.25;;
72924;SDS011;61070;50.794;7.054;2023-01-23T08:18:11;35.20;;;16.98;;
72924;SDS011;61070;50.794;7.054;2023-01-23T08:20:36;34.85;;;16.52;;
72924;SDS011;61070;50.794;7.054;2023-01-23T08:23:01;33.97;;;16.77;;
72924;SDS011;61070;50.794;7.054;2023-01-23T08:25:27;41.22;;;16.67;;
72924;SDS011;61070;50.794;7.054;2023-01-23T08:27:52;38.05;;;16.90;;
72924;SDS011;61070;50.794;7.054;2023-01-23T08:30:17;39.42;;;16.58;;
72924;SDS011;61070;50.794;7.054;2023-01-23T08:32:43;38.75;;;17.65;;
72924;SDS011;61070;50.794;7.054;2023-01-23T08:35:08;33.33;;;15.13;;
72924;SDS011;61070;50.794;7.054;2023-01-23T08:37:33;38.10;;;16.60;;
72924;SDS011;61070;50.794;7.054;2023-01-23T08:40:00;35.08;;;16.10;;
72924;SDS011;61070;50.794;7.054;2023-01-23T08:42:26;34.35;;;16.55;;
72924;SDS011;61070;50.794;7.054;2023-01-23T08:44:51;34.45;;;17.00;;
72924;SDS011;61070;50.794;7.054;2023-01-23T08:47:16;34.28;;;15.80;;
72924;SDS011;61070;50.794;7.054;2023-01-23T08:49:42;28.23;;;14.57;;
72924;SDS011;61070;50.794;7.054;2023-01-23T08:52:07;33.55;;;15.85;;
72924;SDS011;61070;50.794;7.054;2023-01-23T08:54:32;30.52;;;13.80;;
72924;SDS011;61070;50.794;7.054;2023-01-23T08:56:58;29.83;;;15.02;;
72924;SDS011;61070;50.794;7.054;2023-01-23T08:59:23;33.50;;;14.52;;
72924;SDS011;61070;50.794;7.054;2023-01-23T09:01:49;33.55;;;17.38;;
72924;SDS011;61070;50.794;7.054;2023-01-23T09:04:14;33.47;;;16.63;;
72924;SDS011;61070;50.794;7.054;2023-01-23T09:06:41;33.72;;;15.88;;
72924;SDS011;61070;50.794;7.054;2023-01-23T09:09:06;38.50;;;16.30;;
72924;SDS011;61070;50.794;7.054;2023-01-23T09:11:32;32.28;;;14.82;;
72924;SDS011;61070;50.794;7.054;2023-01-23T09:13:57;31.70;;;15.93;;
72924;SDS011;61070;50.794;7.054;2023-01-23T09:16:22;34.05;;;15.63;;
72924;SDS011;61070;50.794;7.054;2023-01-23T09:18:48;30.70;;;15.15;;
72924;SDS011;61070;50.794;7.054;2023-01-23T09:21:14;31.38;;;14.10;;
72924;SDS011;61070;50.794;7.054;2023-01-23T09:23:40;35.13;;;14.98;;
72924;SDS011;61070;50.794;7.054;2023-01-23T09:26:08;33.63;;;15.85;;
72924;SDS011;61070;50.794;7.054;2023-01-23T09:28:35;33.92;;;15.18;;
72924;SDS011;61070;50.794;7.054;2023-01-23T09:31:02;35.22;;;16.13;;
72924;SDS011;61070;50.794;7.054;2023-01-23T09:33:28;31.15;;;14.90;;
72924;SDS011;61070;50.794;7.054;2023-01-23T09:35:54;37.45;;;15.88;;
72924;SDS011;61070;50.794;7.054;2023-01-23T09:38:19;29.63;;;14.93;;
72924;SDS011;61070;50.794;7.054;2023-01-23T09:40:48;31.73;;;15.38;;
72924;SDS011;61070;50.794;7.054;2023-01-23T09:51:20;39.35;;;17.80;;
72924;SDS011;61070;50.794;7.054;2023-01-23T09:53:50;40.80;;;15.43;;
72924;SDS011;61070;50.794;7.054;2023-01-23T09:56:30;25.42;;;12.98;;
72924;SDS011;61070;50.794;7.054;2023-01-23T09:59:02;25.13;;;12.35;;
72924;SDS011;61070;50.794;7.054;2023-01-23T10:01:37;27.17;;;13.45;;
72924;SDS011;61070;50.794;7.054;2023-01-23T10:04:02;26.55;;;13.07;;
72924;SDS011;61070;50.794;7.054;2023-01-23T10:06:40;29.45;;;13.57;;
72924;SDS011;61070;50.794;7.054;2023-01-23T10:09:29;26.10;;;12.70;;
72924;SDS011;61070;50.794;7.054;2023-01-23T10:12:12;28.73;;;13.65;;
72924;SDS011;61070;50.794;7.054;2023-01-23T10:17:45;26.27;;;12.88;;
72924;SDS011;61070;50.794;7.054;2023-01-23T10:20:26;30.98;;;13.60;;
72924;SDS011;61070;50.794;7.054;2023-01-23T10:23:17;28.08;;;13.60;;
72924;SDS011;61070;50.794;7.054;2023-01-23T10:25:54;29.40;;;13.05;;
72924;SDS011;61070;50.794;7.054;2023-01-23T10:28:30;25.80;;;13.02;;
72924;SDS011;61070;50.794;7.054;2023-01-23T10:31:00;27.88;;;12.95;;
72924;SDS011;61070;50.794;7.054;2023-01-23T10:34:14;31.92;;;16.35;;
72924;SDS011;61070;50.794;7.054;2023-01-23T10:36:30;27.05;;;12.70;;
72924;SDS011;61070;50.794;7.054;2023-01-23T10:41:42;28.95;;;13.63;;
72924;SDS011;61070;50.794;7.054;2023-01-23T10:44:14;23.20;;;12.85;;
72924;SDS011;61070;50.794;7.054;2023-01-23T10:46:59;24.20;;;13.65;;
72924;SDS011;61070;50.794;7.054;2023-01-23T10:49:33;24.27;;;12.15;;
72924;SDS011;61070;50.794;7.054;2023-01-23T10:52:00;23.70;;;11.52;;
72924;SDS011;61070;50.794;7.054;2023-01-23T10:54:26;25.38;;;13.57;;
72924;SDS011;61070;50.794;7.054;2023-01-23T10:59:38;29.80;;;12.35;;
72924;SDS011;61070;50.794;7.054;2023-01-23T11:04:43;28.48;;;12.38;;
72924;SDS011;61070;50.794;7.054;2023-01-23T11:07:18;25.85;;;12.60;;
72924;SDS011;61070;50.794;7.054;2023-01-23T11:09:58;21.00;;;11.30;;
72924;SDS011;61070;50.794;7.054;2023-01-23T11:12:26;26.92;;;11.65;;
72924;SDS011;61070;50.794;7.054;2023-01-23T11:18:00;23.63;;;10.07;;
72924;SDS011;61070;50.794;7.054;2023-01-23T11:20:34;24.45;;;10.32;;
72924;SDS011;61070;50.794;7.054;2023-01-23T11:25:35;12.45;;;7.07;;
72924;SDS011;61070;50.794;7.054;2023-01-23T11:28:15;12.50;;;7.55;;
72924;SDS011;61070;50.794;7.054;2023-01-23T11:30:52;14.30;;;7.88;;
72924;SDS011;61070;50.794;7.054;2023-01-23T11:33:29;14.73;;;7.60;;
72924;SDS011;61070;50.794;7.054;2023-01-23T11:38:25;12.35;;;7.25;;
72924;SDS011;61070;50.794;7.054;2023-01-23T11:40:52;12.23;;;6.75;;
72924;SDS011;61070;50.794;7.054;2023-01-23T11:43:17;12.05;;;6.68;;
72924;SDS011;61070;50.794;7.054;2023-01-23T11:51:44;11.50;;;6.60;;
72924;SDS011;61070;50.794;7.054;2023-01-23T12:08:35;9.43;;;6.03;;
72924;SDS011;61070;50.794;7.054;2023-01-23T12:11:12;11.20;;;6.47;;
72924;SDS011;61070;50.794;7.054;2023-01-23T12:22:18;12.00;;;6.20;;
72924;SDS011;61070;50.794;7.054;2023-01-23T12:33:18;8.40;;;5.35;;
72924;SDS011;61070;50.794;7.054;2023-01-23T12:38:36;8.70;;;5.00;;
72924;SDS011;61070;50.794;7.054;2023-01-23T12:41:35;7.90;;;4.65;;
72924;SDS011;61070;50.794;7.054;2023-01-23T12:52:06;8.75;;;5.50;;
72924;SDS011;61070;50.794;7.054;2023-01-23T12:54:42;9.30;;;5.65;;
72924;SDS011;61070;50.794;7.054;2023-01-23T12:57:12;8.25;;;5.38;;
72924;SDS011;61070;50.794;7.054;2023-01-23T12:59:48;10.52;;;5.97;;
72924;SDS011;61070;50.794;7.054;2023-01-23T13:05:12;9.32;;;4.90;;
72924;SDS011;61070;50.794;7.054;2023-01-23T13:07:58;7.60;;;5.45;;
72924;SDS011;61070;50.794;7.054;2023-01-23T13:16:57;7.93;;;4.57;;
72924;SDS011;61070;50.794;7.054;2023-01-23T13:19:27;8.05;;;5.13;;
72924;SDS011;61070;50.794;7.054;2023-01-23T13:24:50;8.45;;;5.18;;
72924;SDS011;61070;50.794;7.054;2023-01-23T13:32:54;9.82;;;5.20;;
72924;SDS011;61070;50.794;7.054;2023-01-23T13:51:59;9.52;;;5.25;;
72924;SDS011;61070;50.794;7.054;2023-01-23T13:54:29;7.80;;;5.38;;
72924;SDS011;61070;50.794;7.054;2023-01-23T13:57:17;9.55;;;6.00;;
72924;SDS011;61070;50.794;7.054;2023-01-23T13:59:44;9.40;;;5.38;;
72924;SDS011;61070;50.794;7.054;2023-01-23T14:02:18;11.30;;;5.60;;
72924;SDS011;61070;50.794;7.054;2023-01-23T14:05:10;8.43;;;5.20;;
72924;SDS011;61070;50.794;7.054;2023-01-23T14:07:43;10.07;;;5.70;;
72924;SDS011;61070;50.794;7.054;2023-01-23T14:10:28;8.68;;;5.63;;
72924;SDS011;61070;50.794;7.054;2023-01-23T14:15:34;12.90;;;6.95;;
72924;SDS011;61070;50.794;7.054;2023-01-23T14:23:53;11.30;;;7.03;;
72924;SDS011;61070;50.794;7.054;2023-01-23T14:26:25;12.63;;;7.70;;
72924;SDS011;61070;50.794;7.054;2023-01-23T14:28:56;8.93;;;6.38;;
72924;SDS011;61070;50.794;7.054;2023-01-23T14:31:32;12.65;;;8.45;;
72924;SDS011;61070;50.794;7.054;2023-01-23T14:34:00;13.07;;;7.40;;
72924;SDS011;61070;50.794;7.054;2023-01-23T14:36:28;14.60;;;7.45;;
72924;SDS011;61070;50.794;7.054;2023-01-23T14:38:56;10.07;;;6.55;;
72924;SDS011;61070;50.794;7.054;2023-01-23T14:41:25;15.13;;;5.97;;
72924;SDS011;61070;50.794;7.054;2023-01-23T14:43:54;9.85;;;6.00;;
72924;SDS011;61070;50.794;7.054;2023-01-23T14:46:26;11.85;;;6.07;;
72924;SDS011;61070;50.794;7.054;2023-01-23T14:48:59;12.13;;;5.35;;
72924;SDS011;61070;50.794;7.054;2023-01-23T14:51:26;10.20;;;5.47;;
72924;SDS011;61070;50.794;7.054;2023-01-23T14:53:53;9.30;;;5.78;;
72924;SDS011;61070;50.794;7.054;2023-01-23T14:56:21;12.10;;;6.05;;
72924;SDS011;61070;50.794;7.054;2023-01-23T14:58:48;14.40;;;6.60;;
72924;SDS011;61070;50.794;7.054;2023-01-23T15:01:14;10.73;;;5.95;;
72924;SDS011;61070;50.794;7.054;2023-01-23T15:03:43;11.35;;;5.70;;
72924;SDS011;61070;50.794;7.054;2023-01-23T15:06:19;11.55;;;6.32;;
72924;SDS011;61070;50.794;7.054;2023-01-23T15:08:46;10.15;;;6.15;;
72924;SDS011;61070;50.794;7.054;2023-01-23T15:11:12;11.55;;;6.25;;
72924;SDS011;61070;50.794;7.054;2023-01-23T15:13:48;10.77;;;6.25;;
72924;SDS011;61070;50.794;7.054;2023-01-23T15:16:19;13.82;;;7.07;;
72924;SDS011;61070;50.794;7.054;2023-01-23T15:18:54;10.23;;;6.43;;
72924;SDS011;61070;50.794;7.054;2023-01-23T15:21:26;14.68;;;6.55;;
72924;SDS011;61070;50.794;7.054;2023-01-23T15:24:02;10.20;;;6.05;;
72924;SDS011;61070;50.794;7.054;2023-01-23T15:26:31;18.70;;;10.15;;
72924;SDS011;61070;50.794;7.054;2023-01-23T15:29:22;9.93;;;7.00;;
72924;SDS011;61070;50.794;7.054;2023-01-23T15:31:49;13.85;;;6.65;;
72924;SDS011;61070;50.794;7.054;2023-01-23T15:34:25;10.93;;;7.25;;
72924;SDS011;61070;50.794;7.054;2023-01-23T15:37:01;10.88;;;6.82;;
72924;SDS011;61070;50.794;7.054;2023-01-23T15:42:37;12.02;;;7.10;;
72924;SDS011;61070;50.794;7.054;2023-01-23T15:45:04;11.73;;;7.32;;
72924;SDS011;61070;50.794;7.054;2023-01-23T15:47:36;11.85;;;7.15;;
72924;SDS011;61070;50.794;7.054;2023-01-23T15:50:02;13.07;;;8.27;;
72924;SDS011;61070;50.794;7.054;2023-01-23T15:52:29;14.05;;;7.63;;
72924;SDS011;61070;50.794;7.054;2023-01-23T15:55:09;13.38;;;7.65;;
72924;SDS011;61070;50.794;7.054;2023-01-23T15:57:35;13.00;;;7.20;;
72924;SDS011;61070;50.794;7.054;2023-01-23T16:00:00;12.52;;;7.75;;
72924;SDS011;61070;50.794;7.054;2023-01-23T16:02:26;14.18;;;7.10;;
72924;SDS011;61070;50.794;7.054;2023-01-23T16:04:51;13.13;;;7.18;;
72924;SDS011;61070;50.794;7.054;2023-01-23T16:07:24;16.83;;;7.45;;
72924;SDS011;61070;50.794;7.054;2023-01-23T16:10:02;16.80;;;7.00;;
72924;SDS011;61070;50.794;7.054;2023-01-23T16:12:29;13.20;;;7.20;;
72924;SDS011;61070;50.794;7.054;2023-01-23T16:14:56;13.73;;;8.13;;
72924;SDS011;61070;50.794;7.054;2023-01-23T16:17:22;20.02;;;8.45;;
72924;SDS011;61070;50.794;7.054;2023-01-23T16:19:47;13.32;;;7.40;;
72924;SDS011;61070;50.794;7.054;2023-01-23T16:22:20;13.07;;;7.47;;
72924;SDS011;61070;50.794;7.054;2023-01-23T16:24:50;15.48;;;8.98;;
72924;SDS011;61070;50.794;7.054;2023-01-23T16:27:17;13.18;;;8.15;;
72924;SDS011;61070;50.794;7.054;2023-01-23T16:29:43;18.73;;;8.82;;
72924;SDS011;61070;50.794;7.054;2023-01-23T16:32:10;15.48;;;8.80;;
72924;SDS011;61070;50.794;7.054;2023-01-23T16:34:36;13.88;;;7.88;;
72924;SDS011;61070;50.794;7.054;2023-01-23T16:37:01;16.25;;;8.45;;
72924;SDS011;61070;50.794;7.054;2023-01-23T16:39:28;15.65;;;8.35;;